sensor_id;sensor_type;location;lat;lon;timestamp;P1;durP1;ratioP1;P2;durP2;ratioP2
36475;SDS011;56615;42.682;23.364;2023-08-12T00:00:43;6.15;;;2.90;;
36475;SDS011;56615;42.682;23.364;2023-08-12T00:03:08;5.43;;;2.75;;
36475;SDS011;56615;42.682;23.364;2023-08-12T00:05:34;5.75;;;2.80;;
36475;SDS011;56615;42.682;23.364;2023-08-12T00:08:00;5.15;;;3.00;;
36475;SDS011;56615;42.682;23.364;2023-08-12T00:10:26;4.78;;;2.78;;
36475;SDS011;56615;42.682;23.364;2023-08-12T00:12:52;4.90;;;2.70;;
36475;SDS011;56615;42.682;23.364;2023-08-12T00:15:17;4.75;;;2.70;;
36475;SDS011;56615;42.682;23.364;2023-08-12T00:17:44;3.50;;;2.60;;
36475;SDS011;56615;42.682;23.364;2023-08-12T00:20:10;4.55;;;2.85;;
36475;SDS011;56615;42.682;23.364;2023-08-12T00:22:37;5.45;;;2.80;;
36475;SDS011;56615;42.682;23.364;2023-08-12T00:25:04;3.92;;;2.70;;
36475;SDS011;56615;42.682;23.364;2023-08-12T00:27:31;6.95;;;2.92;;
36475;SDS011;56615;42.682;23.364;2023-08-12T00:29:59;5.22;;;2.95;;
36475;SDS011;56615;42.682;23.364;2023-08-12T00:32:26;4.28;;;2.90;;
36475;SDS011;56615;42.682;23.364;2023-08-12T00:34:51;4.32;;;2.58;;
36475;SDS011;56615;42.682;23.364;2023-08-12T00:37:16;4.97;;;2.80;;
36475;SDS011;56615;42.682;23.364;2023-08-12T00:39:42;4.90;;;2.85;;
36475;SDS011;56615;42.682;23.364;2023-08-12T00:42:07;4.75;;;2.85;;
36475;SDS011;56615;42.682;23.364;2023-08-12T00:44:33;4.90;;;2.70;;
36475;SDS011;56615;42.682;23.364;2023-08-12T00:46:58;4.97;;;2.90;;
36475;SDS011;56615;42.682;23.364;2023-08-12T00:49:24;5.13;;;2.97;;
36475;SDS011;56615;42.682;23.364;2023-08-12T00:51:51;7.13;;;2.70;;
36475;SDS011;56615;42.682;23.364;2023-08-12T00:54:17;4.78;;;2.72;;
36475;SDS011;56615;42.682;23.364;2023-08-12T00:56:44;3.95;;;2.65;;
36475;SDS011;56615;42.682;23.364;2023-08-12T00:59:10;5.13;;;2.72;;
36475;SDS011;56615;42.682;23.364;2023-08-12T01:01:40;5.07;;;2.83;;
36475;SDS011;56615;42.682;23.364;2023-08-12T01:04:08;4.78;;;2.65;;
36475;SDS011;56615;42.682;23.364;2023-08-12T01:06:40;6.50;;;2.80;;
36475;SDS011;56615;42.682;23.364;2023-08-12T01:09:06;4.20;;;2.75;;
36475;SDS011;56615;42.682;23.364;2023-08-12T01:11:42;3.65;;;2.65;;
36475;SDS011;56615;42.682;23.364;2023-08-12T01:14:17;6.13;;;2.70;;
36475;SDS011;56615;42.682;23.364;2023-08-12T01:16:54;4.45;;;2.72;;
36475;SDS011;56615;42.682;23.364;2023-08-12T01:19:28;4.80;;;2.97;;
36475;SDS011;56615;42.682;23.364;2023-08-12T01:21:55;5.85;;;2.80;;
36475;SDS011;56615;42.682;23.364;2023-08-12T01:24:21;5.60;;;2.80;;
36475;SDS011;56615;42.682;23.364;2023-08-12T01:26:47;3.97;;;2.75;;
36475;SDS011;56615;42.682;23.364;2023-08-12T01:29:12;5.50;;;3.05;;
36475;SDS011;56615;42.682;23.364;2023-08-12T01:31:41;6.13;;;3.28;;
36475;SDS011;56615;42.682;23.364;2023-08-12T01:34:18;6.40;;;2.90;;
36475;SDS011;56615;42.682;23.364;2023-08-12T01:36:51;5.90;;;2.60;;
36475;SDS011;56615;42.682;23.364;2023-08-12T01:39:19;7.10;;;3.00;;
36475;SDS011;56615;42.682;23.364;2023-08-12T01:41:45;6.18;;;3.28;;
36475;SDS011;56615;42.682;23.364;2023-08-12T01:44:11;5.57;;;2.92;;
36475;SDS011;56615;42.682;23.364;2023-08-12T01:46:36;4.85;;;2.70;;
36475;SDS011;56615;42.682;23.364;2023-08-12T01:49:02;4.53;;;2.72;;
36475;SDS011;56615;42.682;23.364;2023-08-12T01:51:29;5.70;;;2.85;;
36475;SDS011;56615;42.682;23.364;2023-08-12T01:53:54;6.35;;;3.22;;
36475;SDS011;56615;42.682;23.364;2023-08-12T01:56:20;4.40;;;2.78;;
36475;SDS011;56615;42.682;23.364;2023-08-12T01:58:46;5.47;;;2.75;;
36475;SDS011;56615;42.682;23.364;2023-08-12T02:01:11;5.97;;;2.88;;
36475;SDS011;56615;42.682;23.364;2023-08-12T02:03:37;3.40;;;2.53;;
36475;SDS011;56615;42.682;23.364;2023-08-12T02:06:03;6.07;;;2.95;;
36475;SDS011;56615;42.682;23.364;2023-08-12T02:08:29;4.80;;;2.90;;
36475;SDS011;56615;42.682;23.364;2023-08-12T02:10:56;7.05;;;3.08;;
36475;SDS011;56615;42.682;23.364;2023-08-12T02:13:21;8.57;;;3.08;;
36475;SDS011;56615;42.682;23.364;2023-08-12T02:15:47;5.88;;;2.92;;
36475;SDS011;56615;42.682;23.364;2023-08-12T02:18:12;6.32;;;2.75;;
36475;SDS011;56615;42.682;23.364;2023-08-12T02:29:18;5.50;;;2.88;;
36475;SDS011;56615;42.682;23.364;2023-08-12T02:31:44;7.18;;;2.95;;
36475;SDS011;56615;42.682;23.364;2023-08-12T02:34:09;5.53;;;2.85;;
36475;SDS011;56615;42.682;23.364;2023-08-12T02:36:35;5.47;;;2.67;;
36475;SDS011;56615;42.682;23.364;2023-08-12T02:39:01;6.32;;;2.92;;
36475;SDS011;56615;42.682;23.364;2023-08-12T02:41:26;7.03;;;2.80;;
36475;SDS011;56615;42.682;23.364;2023-08-12T02:43:51;5.93;;;2.92;;
36475;SDS011;56615;42.682;23.364;2023-08-12T02:46:17;4.75;;;2.75;;
36475;SDS011;56615;42.682;23.364;2023-08-12T02:48:43;4.75;;;2.78;;
36475;SDS011;56615;42.682;23.364;2023-08-12T02:51:09;5.20;;;3.10;;
36475;SDS011;56615;42.682;23.364;2023-08-12T02:53:35;5.00;;;3.17;;
36475;SDS011;56615;42.682;23.364;2023-08-12T02:56:00;4.88;;;3.03;;
36475;SDS011;56615;42.682;23.364;2023-08-12T02:58:26;5.00;;;3.20;;
36475;SDS011;56615;42.682;23.364;2023-08-12T03:00:51;7.18;;;3.00;;
36475;SDS011;56615;42.682;23.364;2023-08-12T03:03:16;7.35;;;3.30;;
36475;SDS011;56615;42.682;23.364;2023-08-12T03:05:46;6.90;;;3.00;;
36475;SDS011;56615;42.682;23.364;2023-08-12T03:08:12;5.38;;;3.13;;
36475;SDS011;56615;42.682;23.364;2023-08-12T03:10:38;7.15;;;3.08;;
36475;SDS011;56615;42.682;23.364;2023-08-12T03:13:03;5.95;;;3.00;;
36475;SDS011;56615;42.682;23.364;2023-08-12T03:15:29;5.55;;;2.90;;
36475;SDS011;56615;42.682;23.364;2023-08-12T03:17:55;7.38;;;2.78;;
36475;SDS011;56615;42.682;23.364;2023-08-12T03:20:21;5.55;;;3.03;;
36475;SDS011;56615;42.682;23.364;2023-08-12T03:22:47;4.35;;;2.97;;
36475;SDS011;56615;42.682;23.364;2023-08-12T03:25:13;5.65;;;3.00;;
36475;SDS011;56615;42.682;23.364;2023-08-12T03:27:40;4.70;;;2.92;;
36475;SDS011;56615;42.682;23.364;2023-08-12T03:30:05;6.95;;;3.20;;
36475;SDS011;56615;42.682;23.364;2023-08-12T03:32:31;8.23;;;3.63;;
36475;SDS011;56615;42.682;23.364;2023-08-12T03:34:59;6.40;;;3.10;;
36475;SDS011;56615;42.682;23.364;2023-08-12T03:37:25;7.00;;;3.85;;
36475;SDS011;56615;42.682;23.364;2023-08-12T03:39:50;6.32;;;3.10;;
36475;SDS011;56615;42.682;23.364;2023-08-12T03:42:16;8.15;;;4.15;;
36475;SDS011;56615;42.682;23.364;2023-08-12T03:44:42;7.65;;;3.75;;
36475;SDS011;56615;42.682;23.364;2023-08-12T03:47:08;7.07;;;4.05;;
36475;SDS011;56615;42.682;23.364;2023-08-12T03:49:35;7.85;;;4.00;;
36475;SDS011;56615;42.682;23.364;2023-08-12T03:52:00;6.80;;;4.25;;
36475;SDS011;56615;42.682;23.364;2023-08-12T03:54:26;8.20;;;4.30;;
36475;SDS011;56615;42.682;23.364;2023-08-12T03:56:51;7.60;;;4.30;;
36475;SDS011;56615;42.682;23.364;2023-08-12T03:59:16;9.55;;;4.28;;
36475;SDS011;56615;42.682;23.364;2023-08-12T04:01:42;6.95;;;4.47;;
36475;SDS011;56615;42.682;23.364;2023-08-12T04:04:07;8.13;;;4.47;;
36475;SDS011;56615;42.682;23.364;2023-08-12T04:06:33;8.73;;;4.15;;
36475;SDS011;56615;42.682;23.364;2023-08-12T04:11:45;8.23;;;4.05;;
36475;SDS011;56615;42.682;23.364;2023-08-12T04:14:11;6.70;;;3.80;;
36475;SDS011;56615;42.682;23.364;2023-08-12T04:16:40;6.55;;;3.80;;
36475;SDS011;56615;42.682;23.364;2023-08-12T04:19:05;6.32;;;3.50;;
36475;SDS011;56615;42.682;23.364;2023-08-12T04:21:31;7.80;;;3.92;;
36475;SDS011;56615;42.682;23.364;2023-08-12T04:23:56;10.27;;;3.72;;
36475;SDS011;56615;42.682;23.364;2023-08-12T04:26:22;8.60;;;3.60;;
36475;SDS011;56615;42.682;23.364;2023-08-12T04:28:47;6.63;;;3.72;;
36475;SDS011;56615;42.682;23.364;2023-08-12T04:31:17;9.98;;;4.80;;
36475;SDS011;56615;42.682;23.364;2023-08-12T04:33:42;9.43;;;4.50;;
36475;SDS011;56615;42.682;23.364;2023-08-12T04:36:08;8.82;;;4.55;;
36475;SDS011;56615;42.682;23.364;2023-08-12T04:38:33;9.95;;;4.97;;
36475;SDS011;56615;42.682;23.364;2023-08-12T04:41:00;8.32;;;3.85;;
36475;SDS011;56615;42.682;23.364;2023-08-12T04:43:25;10.13;;;3.97;;
36475;SDS011;56615;42.682;23.364;2023-08-12T04:45:51;7.28;;;3.72;;
36475;SDS011;56615;42.682;23.364;2023-08-12T04:48:17;6.57;;;3.35;;
36475;SDS011;56615;42.682;23.364;2023-08-12T04:50:42;5.10;;;3.03;;
36475;SDS011;56615;42.682;23.364;2023-08-12T04:53:08;8.38;;;2.80;;
36475;SDS011;56615;42.682;23.364;2023-08-12T04:55:36;5.53;;;3.08;;
36475;SDS011;56615;42.682;23.364;2023-08-12T04:58:03;11.88;;;3.33;;
36475;SDS011;56615;42.682;23.364;2023-08-12T05:00:31;8.77;;;3.40;;
36475;SDS011;56615;42.682;23.364;2023-08-12T05:03:06;7.93;;;3.30;;
36475;SDS011;56615;42.682;23.364;2023-08-12T05:05:31;7.25;;;3.00;;
36475;SDS011;56615;42.682;23.364;2023-08-12T05:07:57;8.38;;;3.08;;
36475;SDS011;56615;42.682;23.364;2023-08-12T05:10:22;6.50;;;2.90;;
36475;SDS011;56615;42.682;23.364;2023-08-12T05:12:48;5.88;;;2.70;;
36475;SDS011;56615;42.682;23.364;2023-08-12T05:15:15;5.43;;;2.80;;
36475;SDS011;56615;42.682;23.364;2023-08-12T05:17:41;6.53;;;2.83;;
36475;SDS011;56615;42.682;23.364;2023-08-12T05:20:06;5.28;;;2.40;;
36475;SDS011;56615;42.682;23.364;2023-08-12T05:22:33;4.38;;;2.33;;
36475;SDS011;56615;42.682;23.364;2023-08-12T05:24:58;4.72;;;2.35;;
36475;SDS011;56615;42.682;23.364;2023-08-12T05:27:24;3.75;;;2.20;;
36475;SDS011;56615;42.682;23.364;2023-08-12T05:29:49;3.85;;;2.30;;
36475;SDS011;56615;42.682;23.364;2023-08-12T05:32:15;5.60;;;2.33;;
36475;SDS011;56615;42.682;23.364;2023-08-12T05:34:40;6.80;;;2.25;;
36475;SDS011;56615;42.682;23.364;2023-08-12T05:37:06;4.13;;;2.45;;
36475;SDS011;56615;42.682;23.364;2023-08-12T05:39:34;3.58;;;2.17;;
36475;SDS011;56615;42.682;23.364;2023-08-12T05:42:01;5.47;;;2.20;;
36475;SDS011;56615;42.682;23.364;2023-08-12T05:44:27;5.55;;;2.25;;
36475;SDS011;56615;42.682;23.364;2023-08-12T05:46:54;8.40;;;2.50;;
36475;SDS011;56615;42.682;23.364;2023-08-12T05:49:26;4.57;;;2.08;;
36475;SDS011;56615;42.682;23.364;2023-08-12T05:51:51;4.30;;;2.40;;
36475;SDS011;56615;42.682;23.364;2023-08-12T05:54:17;6.15;;;2.20;;
36475;SDS011;56615;42.682;23.364;2023-08-12T05:56:43;4.55;;;2.50;;
36475;SDS011;56615;42.682;23.364;2023-08-12T05:59:13;6.88;;;2.30;;
36475;SDS011;56615;42.682;23.364;2023-08-12T06:01:40;7.75;;;2.30;;
36475;SDS011;56615;42.682;23.364;2023-08-12T06:04:17;6.68;;;2.00;;
36475;SDS011;56615;42.682;23.364;2023-08-12T06:06:42;8.10;;;2.30;;
36475;SDS011;56615;42.682;23.364;2023-08-12T06:09:11;6.00;;;2.40;;
36475;SDS011;56615;42.682;23.364;2023-08-12T06:11:40;8.67;;;2.80;;
36475;SDS011;56615;42.682;23.364;2023-08-12T06:14:07;7.55;;;2.20;;
36475;SDS011;56615;42.682;23.364;2023-08-12T06:16:35;3.63;;;2.17;;
36475;SDS011;56615;42.682;23.364;2023-08-12T06:19:01;4.32;;;2.40;;
36475;SDS011;56615;42.682;23.364;2023-08-12T06:21:28;7.35;;;2.58;;
36475;SDS011;56615;42.682;23.364;2023-08-12T06:23:56;6.45;;;2.33;;
36475;SDS011;56615;42.682;23.364;2023-08-12T06:26:24;7.47;;;2.30;;
36475;SDS011;56615;42.682;23.364;2023-08-12T06:28:53;5.60;;;2.47;;
36475;SDS011;56615;42.682;23.364;2023-08-12T06:31:19;6.90;;;2.13;;
36475;SDS011;56615;42.682;23.364;2023-08-12T06:33:48;5.00;;;2.45;;
36475;SDS011;56615;42.682;23.364;2023-08-12T06:36:17;8.30;;;2.30;;
36475;SDS011;56615;42.682;23.364;2023-08-12T06:38:47;7.72;;;2.30;;
36475;SDS011;56615;42.682;23.364;2023-08-12T06:41:16;5.60;;;2.25;;
36475;SDS011;56615;42.682;23.364;2023-08-12T06:43:52;7.40;;;2.35;;
36475;SDS011;56615;42.682;23.364;2023-08-12T06:46:29;4.30;;;2.08;;
36475;SDS011;56615;42.682;23.364;2023-08-12T06:48:58;6.13;;;2.22;;
36475;SDS011;56615;42.682;23.364;2023-08-12T06:51:24;4.07;;;2.10;;
36475;SDS011;56615;42.682;23.364;2023-08-12T06:53:50;7.72;;;2.30;;
36475;SDS011;56615;42.682;23.364;2023-08-12T06:56:16;5.28;;;2.30;;
36475;SDS011;56615;42.682;23.364;2023-08-12T06:58:46;4.03;;;2.03;;
36475;SDS011;56615;42.682;23.364;2023-08-12T07:01:14;5.93;;;2.50;;
36475;SDS011;56615;42.682;23.364;2023-08-12T07:04:02;5.72;;;2.45;;
36475;SDS011;56615;42.682;23.364;2023-08-12T07:06:48;4.63;;;2.50;;
36475;SDS011;56615;42.682;23.364;2023-08-12T07:09:13;6.40;;;2.78;;
36475;SDS011;56615;42.682;23.364;2023-08-12T07:11:39;7.15;;;2.55;;
36475;SDS011;56615;42.682;23.364;2023-08-12T07:14:05;3.17;;;2.45;;
36475;SDS011;56615;42.682;23.364;2023-08-12T07:16:30;7.43;;;2.47;;
36475;SDS011;56615;42.682;23.364;2023-08-12T07:18:56;7.28;;;2.70;;
36475;SDS011;56615;42.682;23.364;2023-08-12T07:21:21;11.60;;;2.42;;
36475;SDS011;56615;42.682;23.364;2023-08-12T07:23:47;7.70;;;2.47;;
36475;SDS011;56615;42.682;23.364;2023-08-12T07:26:15;7.22;;;2.60;;
36475;SDS011;56615;42.682;23.364;2023-08-12T07:28:41;6.13;;;2.70;;
36475;SDS011;56615;42.682;23.364;2023-08-12T07:31:06;5.13;;;2.30;;
36475;SDS011;56615;42.682;23.364;2023-08-12T07:33:32;4.10;;;2.30;;
36475;SDS011;56615;42.682;23.364;2023-08-12T07:35:57;5.57;;;2.42;;
36475;SDS011;56615;42.682;23.364;2023-08-12T07:38:22;6.45;;;2.35;;
36475;SDS011;56615;42.682;23.364;2023-08-12T07:40:48;3.65;;;2.20;;
36475;SDS011;56615;42.682;23.364;2023-08-12T07:43:14;6.88;;;2.35;;
36475;SDS011;56615;42.682;23.364;2023-08-12T07:45:40;3.65;;;2.20;;
36475;SDS011;56615;42.682;23.364;2023-08-12T07:48:05;3.20;;;2.20;;
36475;SDS011;56615;42.682;23.364;2023-08-12T07:50:31;4.95;;;2.50;;
36475;SDS011;56615;42.682;23.364;2023-08-12T07:52:56;5.70;;;2.20;;
36475;SDS011;56615;42.682;23.364;2023-08-12T07:55:22;4.00;;;2.20;;
36475;SDS011;56615;42.682;23.364;2023-08-12T07:57:47;4.85;;;2.30;;
36475;SDS011;56615;42.682;23.364;2023-08-12T08:00:13;4.15;;;2.45;;
36475;SDS011;56615;42.682;23.364;2023-08-12T08:02:39;6.05;;;2.05;;
36475;SDS011;56615;42.682;23.364;2023-08-12T08:05:05;4.68;;;2.40;;
36475;SDS011;56615;42.682;23.364;2023-08-12T08:07:32;6.75;;;2.50;;
36475;SDS011;56615;42.682;23.364;2023-08-12T08:09:57;6.22;;;2.28;;
36475;SDS011;56615;42.682;23.364;2023-08-12T08:12:23;4.07;;;2.35;;
36475;SDS011;56615;42.682;23.364;2023-08-12T08:14:48;2.65;;;2.10;;
36475;SDS011;56615;42.682;23.364;2023-08-12T08:17:14;3.90;;;2.47;;
36475;SDS011;56615;42.682;23.364;2023-08-12T08:19:40;6.03;;;2.30;;
36475;SDS011;56615;42.682;23.364;2023-08-12T08:22:05;4.95;;;2.30;;
36475;SDS011;56615;42.682;23.364;2023-08-12T08:24:30;3.10;;;1.92;;
36475;SDS011;56615;42.682;23.364;2023-08-12T08:26:59;3.13;;;2.00;;
36475;SDS011;56615;42.682;23.364;2023-08-12T08:29:24;4.45;;;2.40;;
36475;SDS011;56615;42.682;23.364;2023-08-12T08:31:50;5.13;;;2.20;;
36475;SDS011;56615;42.682;23.364;2023-08-12T08:34:18;13.57;;;8.15;;
36475;SDS011;56615;42.682;23.364;2023-08-12T08:36:43;10.05;;;6.18;;
36475;SDS011;56615;42.682;23.364;2023-08-12T08:39:09;5.43;;;2.92;;
36475;SDS011;56615;42.682;23.364;2023-08-12T08:41:40;3.45;;;2.05;;
36475;SDS011;56615;42.682;23.364;2023-08-12T08:44:09;3.67;;;2.33;;
36475;SDS011;56615;42.682;23.364;2023-08-12T08:46:37;3.35;;;2.20;;
36475;SDS011;56615;42.682;23.364;2023-08-12T08:49:06;5.65;;;2.33;;
36475;SDS011;56615;42.682;23.364;2023-08-12T08:51:32;5.97;;;2.20;;
36475;SDS011;56615;42.682;23.364;2023-08-12T08:53:57;5.45;;;2.33;;
36475;SDS011;56615;42.682;23.364;2023-08-12T08:56:23;8.10;;;2.63;;
36475;SDS011;56615;42.682;23.364;2023-08-12T09:01:39;3.92;;;2.40;;
36475;SDS011;56615;42.682;23.364;2023-08-12T09:04:20;5.43;;;2.38;;
36475;SDS011;56615;42.682;23.364;2023-08-12T09:07:08;5.85;;;2.40;;
36475;SDS011;56615;42.682;23.364;2023-08-12T09:09:40;4.68;;;2.80;;
36475;SDS011;56615;42.682;23.364;2023-08-12T09:12:08;6.20;;;2.65;;
36475;SDS011;56615;42.682;23.364;2023-08-12T09:14:42;6.57;;;4.07;;
36475;SDS011;56615;42.682;23.364;2023-08-12T09:17:09;8.18;;;2.35;;
36475;SDS011;56615;42.682;23.364;2023-08-12T09:19:36;4.85;;;2.17;;
36475;SDS011;56615;42.682;23.364;2023-08-12T09:22:06;5.85;;;2.38;;
36475;SDS011;56615;42.682;23.364;2023-08-12T09:24:36;5.15;;;2.42;;
36475;SDS011;56615;42.682;23.364;2023-08-12T09:27:02;5.55;;;2.20;;
36475;SDS011;56615;42.682;23.364;2023-08-12T09:29:33;4.47;;;2.40;;
36475;SDS011;56615;42.682;23.364;2023-08-12T09:32:24;4.38;;;2.45;;
36475;SDS011;56615;42.682;23.364;2023-08-12T09:35:15;2.75;;;2.15;;
36475;SDS011;56615;42.682;23.364;2023-08-12T09:38:10;6.55;;;3.40;;
36475;SDS011;56615;42.682;23.364;2023-08-12T09:40:47;5.90;;;2.17;;
36475;SDS011;56615;42.682;23.364;2023-08-12T09:43:14;4.03;;;2.30;;
36475;SDS011;56615;42.682;23.364;2023-08-12T09:46:00;4.43;;;2.40;;
36475;SDS011;56615;42.682;23.364;2023-08-12T09:48:40;3.78;;;2.38;;
36475;SDS011;56615;42.682;23.364;2023-08-12T09:51:17;4.80;;;2.20;;
36475;SDS011;56615;42.682;23.364;2023-08-12T09:53:51;4.15;;;2.30;;
36475;SDS011;56615;42.682;23.364;2023-08-12T09:56:23;4.05;;;2.30;;
36475;SDS011;56615;42.682;23.364;2023-08-12T09:59:11;5.45;;;1.95;;
36475;SDS011;56615;42.682;23.364;2023-08-12T10:02:14;4.93;;;2.10;;
36475;SDS011;56615;42.682;23.364;2023-08-12T10:04:48;3.60;;;2.60;;
36475;SDS011;56615;42.682;23.364;2023-08-12T10:07:23;4.32;;;2.40;;
36475;SDS011;56615;42.682;23.364;2023-08-12T10:10:01;3.83;;;2.40;;
36475;SDS011;56615;42.682;23.364;2023-08-12T10:12:35;4.20;;;2.80;;
36475;SDS011;56615;42.682;23.364;2023-08-12T10:15:09;5.63;;;2.40;;
36475;SDS011;56615;42.682;23.364;2023-08-12T10:17:38;2.50;;;2.00;;
36475;SDS011;56615;42.682;23.364;2023-08-12T10:20:14;6.30;;;2.33;;
36475;SDS011;56615;42.682;23.364;2023-08-12T10:22:59;3.63;;;2.40;;
36475;SDS011;56615;42.682;23.364;2023-08-12T10:25:32;5.47;;;2.72;;
36475;SDS011;56615;42.682;23.364;2023-08-12T10:28:33;8.40;;;3.00;;
36475;SDS011;56615;42.682;23.364;2023-08-12T10:31:12;5.60;;;2.63;;
36475;SDS011;56615;42.682;23.364;2023-08-12T10:33:47;4.22;;;1.88;;
36475;SDS011;56615;42.682;23.364;2023-08-12T10:36:14;3.10;;;2.30;;
36475;SDS011;56615;42.682;23.364;2023-08-12T10:38:40;3.35;;;1.92;;
36475;SDS011;56615;42.682;23.364;2023-08-12T10:41:22;4.75;;;2.30;;
36475;SDS011;56615;42.682;23.364;2023-08-12T10:43:52;4.45;;;2.50;;
36475;SDS011;56615;42.682;23.364;2023-08-12T10:46:53;3.58;;;2.00;;
36475;SDS011;56615;42.682;23.364;2023-08-12T10:52:27;6.30;;;2.17;;
36475;SDS011;56615;42.682;23.364;2023-08-12T10:57:58;2.60;;;1.88;;
36475;SDS011;56615;42.682;23.364;2023-08-12T11:00:24;2.95;;;2.00;;
36475;SDS011;56615;42.682;23.364;2023-08-12T11:02:52;4.90;;;1.95;;
36475;SDS011;56615;42.682;23.364;2023-08-12T11:08:11;4.00;;;2.20;;
36475;SDS011;56615;42.682;23.364;2023-08-12T11:10:44;3.93;;;2.30;;
36475;SDS011;56615;42.682;23.364;2023-08-12T11:13:09;3.30;;;2.10;;
36475;SDS011;56615;42.682;23.364;2023-08-12T11:18:57;2.20;;;1.77;;
36475;SDS011;56615;42.682;23.364;2023-08-12T11:21:24;3.50;;;1.70;;
36475;SDS011;56615;42.682;23.364;2023-08-12T11:23:50;5.95;;;1.67;;
36475;SDS011;56615;42.682;23.364;2023-08-12T11:26:31;5.20;;;1.80;;
36475;SDS011;56615;42.682;23.364;2023-08-12T11:29:27;4.18;;;2.00;;
36475;SDS011;56615;42.682;23.364;2023-08-12T11:31:53;3.33;;;2.10;;
36475;SDS011;56615;42.682;23.364;2023-08-12T11:34:18;3.20;;;2.05;;
36475;SDS011;56615;42.682;23.364;2023-08-12T11:36:51;5.18;;;2.00;;
36475;SDS011;56615;42.682;23.364;2023-08-12T11:39:42;3.28;;;2.00;;
36475;SDS011;56615;42.682;23.364;2023-08-12T11:42:23;2.88;;;2.00;;
36475;SDS011;56615;42.682;23.364;2023-08-12T11:44:59;5.43;;;3.60;;
36475;SDS011;56615;42.682;23.364;2023-08-12T11:47:29;3.95;;;1.80;;
36475;SDS011;56615;42.682;23.364;2023-08-12T11:50:19;2.63;;;2.03;;
36475;SDS011;56615;42.682;23.364;2023-08-12T11:52:54;2.22;;;1.85;;
36475;SDS011;56615;42.682;23.364;2023-08-12T11:55:49;3.40;;;2.20;;
36475;SDS011;56615;42.682;23.364;2023-08-12T11:58:19;2.35;;;1.63;;
36475;SDS011;56615;42.682;23.364;2023-08-12T12:01:10;3.05;;;1.80;;
36475;SDS011;56615;42.682;23.364;2023-08-12T12:06:32;3.58;;;2.05;;
36475;SDS011;56615;42.682;23.364;2023-08-12T12:09:23;3.85;;;2.08;;
36475;SDS011;56615;42.682;23.364;2023-08-12T12:11:52;2.30;;;1.45;;
36475;SDS011;56615;42.682;23.364;2023-08-12T12:14:24;4.00;;;1.80;;
36475;SDS011;56615;42.682;23.364;2023-08-12T12:16:52;4.22;;;1.45;;
36475;SDS011;56615;42.682;23.364;2023-08-12T12:19:31;2.83;;;1.88;;
36475;SDS011;56615;42.682;23.364;2023-08-12T12:22:10;3.72;;;2.05;;
36475;SDS011;56615;42.682;23.364;2023-08-12T12:24:44;4.40;;;2.05;;
36475;SDS011;56615;42.682;23.364;2023-08-12T12:27:17;3.35;;;2.05;;
36475;SDS011;56615;42.682;23.364;2023-08-12T12:29:44;4.43;;;2.08;;
36475;SDS011;56615;42.682;23.364;2023-08-12T12:32:25;3.88;;;2.30;;
36475;SDS011;56615;42.682;23.364;2023-08-12T12:34:55;4.03;;;2.10;;
36475;SDS011;56615;42.682;23.364;2023-08-12T12:37:36;2.63;;;2.00;;
36475;SDS011;56615;42.682;23.364;2023-08-12T12:40:04;5.55;;;1.90;;
36475;SDS011;56615;42.682;23.364;2023-08-12T12:42:39;4.28;;;2.22;;
36475;SDS011;56615;42.682;23.364;2023-08-12T12:45:38;2.97;;;2.20;;
36475;SDS011;56615;42.682;23.364;2023-08-12T12:48:16;3.45;;;2.58;;
36475;SDS011;56615;42.682;23.364;2023-08-12T12:50:59;4.55;;;2.35;;
36475;SDS011;56615;42.682;23.364;2023-08-12T12:53:26;4.28;;;2.70;;
36475;SDS011;56615;42.682;23.364;2023-08-12T12:55:53;5.93;;;3.00;;
36475;SDS011;56615;42.682;23.364;2023-08-12T12:58:35;4.00;;;2.30;;
36475;SDS011;56615;42.682;23.364;2023-08-12T13:01:07;3.20;;;2.08;;
36475;SDS011;56615;42.682;23.364;2023-08-12T13:03:37;4.03;;;1.90;;
36475;SDS011;56615;42.682;23.364;2023-08-12T13:06:19;3.10;;;1.90;;
36475;SDS011;56615;42.682;23.364;2023-08-12T13:08:45;4.20;;;1.85;;
36475;SDS011;56615;42.682;23.364;2023-08-12T13:11:23;3.17;;;2.15;;
36475;SDS011;56615;42.682;23.364;2023-08-12T13:13:52;3.28;;;2.15;;
36475;SDS011;56615;42.682;23.364;2023-08-12T13:16:33;4.78;;;2.05;;
36475;SDS011;56615;42.682;23.364;2023-08-12T13:19:23;4.28;;;1.95;;
36475;SDS011;56615;42.682;23.364;2023-08-12T13:21:49;2.85;;;1.65;;
36475;SDS011;56615;42.682;23.364;2023-08-12T13:24:18;3.80;;;2.00;;
36475;SDS011;56615;42.682;23.364;2023-08-12T13:26:43;2.22;;;1.80;;
36475;SDS011;56615;42.682;23.364;2023-08-12T13:29:08;3.88;;;2.20;;
36475;SDS011;56615;42.682;23.364;2023-08-12T13:31:37;3.70;;;1.80;;
36475;SDS011;56615;42.682;23.364;2023-08-12T13:34:04;2.88;;;2.13;;
36475;SDS011;56615;42.682;23.364;2023-08-12T13:36:30;3.20;;;2.30;;
36475;SDS011;56615;42.682;23.364;2023-08-12T13:38:58;9.07;;;4.90;;
36475;SDS011;56615;42.682;23.364;2023-08-12T13:41:24;8.30;;;3.25;;
36475;SDS011;56615;42.682;23.364;2023-08-12T13:43:49;2.85;;;1.90;;
36475;SDS011;56615;42.682;23.364;2023-08-12T13:46:14;5.93;;;2.97;;
36475;SDS011;56615;42.682;23.364;2023-08-12T13:48:40;9.02;;;4.18;;
36475;SDS011;56615;42.682;23.364;2023-08-12T13:51:07;7.78;;;3.75;;
36475;SDS011;56615;42.682;23.364;2023-08-12T13:53:32;5.85;;;2.78;;
36475;SDS011;56615;42.682;23.364;2023-08-12T13:55:57;9.20;;;3.90;;
36475;SDS011;56615;42.682;23.364;2023-08-12T13:58:23;8.07;;;3.50;;
36475;SDS011;56615;42.682;23.364;2023-08-12T14:00:48;5.60;;;3.10;;
36475;SDS011;56615;42.682;23.364;2023-08-12T14:03:15;6.18;;;2.90;;
36475;SDS011;56615;42.682;23.364;2023-08-12T14:05:50;6.78;;;3.00;;
36475;SDS011;56615;42.682;23.364;2023-08-12T14:08:24;2.83;;;1.98;;
36475;SDS011;56615;42.682;23.364;2023-08-12T14:10:58;3.35;;;1.73;;
36475;SDS011;56615;42.682;23.364;2023-08-12T14:13:34;2.90;;;1.75;;
36475;SDS011;56615;42.682;23.364;2023-08-12T14:16:05;3.25;;;2.17;;
36475;SDS011;56615;42.682;23.364;2023-08-12T14:18:33;4.38;;;2.30;;
36475;SDS011;56615;42.682;23.364;2023-08-12T14:21:01;3.97;;;2.50;;
36475;SDS011;56615;42.682;23.364;2023-08-12T14:23:27;4.38;;;2.00;;
36475;SDS011;56615;42.682;23.364;2023-08-12T14:25:52;2.88;;;2.00;;
36475;SDS011;56615;42.682;23.364;2023-08-12T14:28:18;2.53;;;1.70;;
36475;SDS011;56615;42.682;23.364;2023-08-12T14:30:46;3.42;;;1.88;;
36475;SDS011;56615;42.682;23.364;2023-08-12T14:33:12;3.65;;;1.90;;
36475;SDS011;56615;42.682;23.364;2023-08-12T14:35:37;3.20;;;1.80;;
36475;SDS011;56615;42.682;23.364;2023-08-12T14:38:03;2.53;;;1.90;;
36475;SDS011;56615;42.682;23.364;2023-08-12T14:40:28;3.97;;;2.60;;
36475;SDS011;56615;42.682;23.364;2023-08-12T14:42:54;3.63;;;1.83;;
36475;SDS011;56615;42.682;23.364;2023-08-12T14:45:19;7.55;;;3.40;;
36475;SDS011;56615;42.682;23.364;2023-08-12T14:47:45;4.40;;;2.42;;
36475;SDS011;56615;42.682;23.364;2023-08-12T14:50:10;3.28;;;1.90;;
36475;SDS011;56615;42.682;23.364;2023-08-12T14:52:36;4.82;;;2.00;;
36475;SDS011;56615;42.682;23.364;2023-08-12T14:55:11;3.17;;;1.90;;
36475;SDS011;56615;42.682;23.364;2023-08-12T15:12:48;3.08;;;1.77;;
36475;SDS011;56615;42.682;23.364;2023-08-12T15:15:13;3.83;;;1.98;;
36475;SDS011;56615;42.682;23.364;2023-08-12T15:17:38;2.88;;;1.80;;
36475;SDS011;56615;42.682;23.364;2023-08-12T15:20:04;3.38;;;2.10;;
36475;SDS011;56615;42.682;23.364;2023-08-12T15:22:31;4.20;;;1.80;;
36475;SDS011;56615;42.682;23.364;2023-08-12T15:24:56;3.83;;;1.95;;
36475;SDS011;56615;42.682;23.364;2023-08-12T15:27:24;2.92;;;1.98;;
36475;SDS011;56615;42.682;23.364;2023-08-12T15:29:49;4.00;;;2.05;;